Time;durP1;ratioP1;P1;durP2;ratioP2;P2;SDS_P1;SDS_P2;PMS_P1;PMS_P2;Temp;Humidity;BMP_temperature;BMP_pressure;BME280_temperature;BME280_humidity;BME280_pressure;Samples;Min_cycle;Max_cycle;Signal;HPM_P1;HPM_P2
2023/01/08 00:01:28;;;;;;;9.30;4.75;;;;;;;;;;5061911;28;20028;-82
2023/01/08 00:03:53;;;;;;;9.25;5.13;;;;;;;;;;5079876;28;20031;-81
2023/01/08 00:06:22;;;;;;;7.97;5.10;;;;;;;;;;5079607;28;20033;-80
2023/01/08 00:08:47;;;;;;;9.07;4.78;;;;;;;;;;5079207;28;20387;-82
2023/01/08 00:11:13;;;;;;;6.97;4.68;;;;;;;;;;5061780;28;20067;-82
2023/01/08 00:13:38;;;;;;;10.32;4.88;;;;;;;;;;5062317;28;20549;-81
2023/01/08 00:16:07;;;;;;;7.00;4.55;;;;;;;;;;5061803;28;20527;-84
2023/01/08 00:18:32;;;;;;;10.45;5.32;;;;;;;;;;5079111;28;20029;-82
2023/01/08 00:20:57;;;;;;;9.63;4.82;;;;;;;;;;5079857;28;20031;-83
2023/01/08 00:23:23;;;;;;;7.35;4.82;;;;;;;;;;5079671;28;20462;-82
2023/01/08 00:25:48;;;;;;;9.80;5.28;;;;;;;;;;5078890;28;20024;-81
2023/01/08 00:28:16;;;;;;;7.22;4.68;;;;;;;;;;5079299;28;20050;-82
2023/01/08 00:30:42;;;;;;;9.38;4.97;;;;;;;;;;5078781;28;20043;-82
2023/01/08 00:33:08;;;;;;;8.73;5.45;;;;;;;;;;5078372;28;20482;-82
2023/01/08 00:35:34;;;;;;;9.73;5.38;;;;;;;;;;5060416;28;20113;-82
2023/01/08 00:38:00;;;;;;;8.80;4.40;;;;;;;;;;5060568;28;20078;-81
2023/01/08 00:40:25;;;;;;;8.80;5.17;;;;;;;;;;5060596;28;20028;-81
2023/01/08 00:42:50;;;;;;;9.17;5.30;;;;;;;;;;5078195;28;20249;-82
2023/01/08 00:45:15;;;;;;;9.32;5.22;;;;;;;;;;5060231;28;20315;-82
2023/01/08 00:47:40;;;;;;;9.87;5.27;;;;;;;;;;5061012;28;20127;-80
2023/01/08 00:50:06;;;;;;;10.87;5.33;;;;;;;;;;5060194;28;20293;-81
2023/01/08 00:52:31;;;;;;;7.78;4.88;;;;;;;;;;5060044;28;20272;-80
2023/01/08 00:54:56;;;;;;;7.97;5.00;;;;;;;;;;5060358;28;20087;-81
2023/01/08 00:57:22;;;;;;;8.60;5.07;;;;;;;;;;5078082;28;20027;-81
2023/01/08 00:59:47;;;;;;;8.63;4.90;;;;;;;;;;5078647;28;20262;-81
2023/01/08 01:02:12;;;;;;;10.57;5.07;;;;;;;;;;5060362;28;20031;-80
2023/01/08 01:04:38;;;;;;;8.30;5.10;;;;;;;;;;5059763;28;20021;-80
2023/01/08 01:07:03;;;;;;;12.10;5.10;;;;;;;;;;5076627;28;20020;-80
2023/01/08 01:09:28;;;;;;;9.57;4.97;;;;;;;;;;5078317;28;20028;-79
2023/01/08 01:11:54;;;;;;;7.43;4.57;;;;;;;;;;5077605;28;20024;-82
2023/01/08 01:14:19;;;;;;;8.30;4.60;;;;;;;;;;5078353;28;20095;-82
2023/01/08 01:16:47;;;;;;;6.38;4.13;;;;;;;;;;5060176;28;20478;-82
2023/01/08 01:19:13;;;;;;;8.82;4.22;;;;;;;;;;5077863;28;20023;-81
2023/01/08 01:21:38;;;;;;;9.98;4.60;;;;;;;;;;5078240;28;20024;-83
2023/01/08 01:24:05;;;;;;;8.65;5.03;;;;;;;;;;5061121;28;20043;-82
2023/01/08 01:26:31;;;;;;;7.75;4.72;;;;;;;;;;5059671;28;20028;-81
2023/01/08 01:28:57;;;;;;;7.53;3.92;;;;;;;;;;5060063;28;20094;-83
2023/01/08 01:31:24;;;;;;;8.25;4.70;;;;;;;;;;5059388;28;20028;-81
2023/01/08 01:33:50;;;;;;;8.55;4.35;;;;;;;;;;5077816;28;20028;-84
2023/01/08 01:36:17;;;;;;;8.27;4.65;;;;;;;;;;5059822;28;20473;-82
2023/01/08 01:38:44;;;;;;;7.68;4.78;;;;;;;;;;5060381;28;20021;-82
2023/01/08 01:41:30;;;;;;;7.88;4.65;;;;;;;;;;5078002;28;20048;-82
2023/01/08 01:43:58;;;;;;;7.85;5.18;;;;;;;;;;5060291;28;20109;-81
2023/01/08 01:46:38;;;;;;;9.25;4.55;;;;;;;;;;5060192;28;20030;-81
2023/01/08 01:49:10;;;;;;;7.47;4.22;;;;;;;;;;5060337;28;20064;-82
2023/01/08 01:51:37;;;;;;;7.40;4.90;;;;;;;;;;5060028;28;20028;-82
2023/01/08 01:54:06;;;;;;;8.88;5.28;;;;;;;;;;5059179;28;20028;-81
2023/01/08 01:56:32;;;;;;;7.95;5.18;;;;;;;;;;5059340;28;20437;-80
2023/01/08 01:58:58;;;;;;;9.10;5.13;;;;;;;;;;5059781;28;20477;-81
2023/01/08 02:01:23;;;;;;;8.43;4.78;;;;;;;;;;5078047;28;20078;-81
2023/01/08 02:03:48;;;;;;;9.82;4.82;;;;;;;;;;5059394;28;20084;-82
2023/01/08 02:06:27;;;;;;;7.75;4.88;;;;;;;;;;5077837;28;20089;-82
2023/01/08 02:08:59;;;;;;;8.65;4.82;;;;;;;;;;5083028;28;20032;-82
2023/01/08 02:12:15;;;;;;;7.80;4.55;;;;;;;;;;5082724;28;20028;-81
2023/01/08 02:14:59;;;;;;;9.25;4.90;;;;;;;;;;5080962;28;20524;-81
2023/01/08 02:17:36;;;;;;;9.60;5.03;;;;;;;;;;5081854;28;20046;-81
2023/01/08 02:20:08;;;;;;;8.80;4.32;;;;;;;;;;5064353;28;20025;-82
2023/01/08 02:23:00;;;;;;;8.93;4.72;;;;;;;;;;5063977;28;20458;-82
2023/01/08 02:25:39;;;;;;;9.60;4.82;;;;;;;;;;5081168;28;20021;-81
2023/01/08 02:28:09;;;;;;;11.27;5.30;;;;;;;;;;5082150;28;20017;-81
2023/01/08 02:30:34;;;;;;;7.22;5.15;;;;;;;;;;5082220;28;20064;-82
2023/01/08 02:32:59;;;;;;;7.85;5.10;;;;;;;;;;5082866;28;20074;-82
2023/01/08 02:35:37;;;;;;;11.07;5.30;;;;;;;;;;5081684;28;20052;-83
2023/01/08 02:38:03;;;;;;;4.65;2.92;;;;;;;;;;5082445;28;20257;-82
2023/01/08 02:40:35;;;;;;;7.78;4.75;;;;;;;;;;5082477;28;20112;-82
2023/01/08 02:43:12;;;;;;;11.57;5.80;;;;;;;;;;5081356;28;20043;-82
2023/01/08 02:45:50;;;;;;;9.68;5.55;;;;;;;;;;5082032;28;20439;-81
2023/01/08 02:48:32;;;;;;;10.25;5.68;;;;;;;;;;5081670;28;20020;-82
2023/01/08 02:51:07;;;;;;;6.35;4.28;;;;;;;;;;5063449;28;20025;-82
2023/01/08 02:54:03;;;;;;;9.68;5.65;;;;;;;;;;5063416;28;20026;-82
2023/01/08 02:56:33;;;;;;;9.45;5.20;;;;;;;;;;5064009;28;20108;-81
2023/01/08 02:59:02;;;;;;;7.55;4.65;;;;;;;;;;5081226;28;20016;-83
2023/01/08 03:01:27;;;;;;;10.05;5.57;;;;;;;;;;5063145;28;20481;-82
2023/01/08 03:03:57;;;;;;;10.68;5.40;;;;;;;;;;5081358;28;20054;-82
2023/01/08 03:06:24;;;;;;;9.15;5.72;;;;;;;;;;5062988;28;20028;-82
2023/01/08 03:08:52;;;;;;;10.05;6.10;;;;;;;;;;5080866;28;20036;-83
2023/01/08 03:11:21;;;;;;;9.70;5.80;;;;;;;;;;5081339;28;20059;-81
2023/01/08 03:13:56;;;;;;;5.82;4.00;;;;;;;;;;5080772;28;20021;-83
2023/01/08 03:16:30;;;;;;;9.05;5.95;;;;;;;;;;5081115;28;20119;-82
2023/01/08 03:19:03;;;;;;;10.70;6.22;;;;;;;;;;5062971;28;20020;-82
2023/01/08 03:21:30;;;;;;;17.45;6.47;;;;;;;;;;5062548;28;20053;-82
2023/01/08 03:23:56;;;;;;;11.10;6.78;;;;;;;;;;5081181;28;20025;-83
2023/01/08 03:26:25;;;;;;;11.35;7.20;;;;;;;;;;5080742;28;20020;-82
2023/01/08 03:28:56;;;;;;;11.65;5.90;;;;;;;;;;5062621;28;20029;-82
2023/01/08 03:31:26;;;;;;;10.88;5.85;;;;;;;;;;5080122;28;20370;-82
2023/01/08 03:33:53;;;;;;;11.90;7.28;;;;;;;;;;5079854;28;20027;-82
2023/01/08 03:36:22;;;;;;;10.43;6.38;;;;;;;;;;5080815;28;20056;-81
2023/01/08 03:38:55;;;;;;;10.00;6.30;;;;;;;;;;5081814;28;20378;-83
2023/01/08 03:41:23;;;;;;;12.73;6.70;;;;;;;;;;5062882;28;20092;-83
2023/01/08 03:43:49;;;;;;;11.52;7.28;;;;;;;;;;5079875;28;20056;-83
2023/01/08 03:46:20;;;;;;;10.77;6.53;;;;;;;;;;5080710;28;20043;-83
2023/01/08 03:48:48;;;;;;;11.75;6.40;;;;;;;;;;5080541;28;20028;-82
2023/01/08 03:51:13;;;;;;;11.63;6.70;;;;;;;;;;5062030;28;20630;-81
2023/01/08 03:53:39;;;;;;;11.18;7.20;;;;;;;;;;5062078;28;20119;-81
2023/01/08 03:56:04;;;;;;;11.52;6.40;;;;;;;;;;5063037;28;20026;-83
2023/01/08 03:58:29;;;;;;;11.43;6.95;;;;;;;;;;5062267;28;20115;-82
2023/01/08 04:00:55;;;;;;;10.60;5.57;;;;;;;;;;5062978;28;20047;-82
2023/01/08 04:03:20;;;;;;;13.30;7.15;;;;;;;;;;5080670;28;20473;-82
2023/01/08 04:05:45;;;;;;;10.77;6.93;;;;;;;;;;5080271;28;20415;-82
2023/01/08 04:08:10;;;;;;;12.50;7.28;;;;;;;;;;5080568;28;20268;-82
2023/01/08 04:10:35;;;;;;;11.43;6.27;;;;;;;;;;5062255;28;20029;-82
2023/01/08 04:13:01;;;;;;;10.73;5.85;;;;;;;;;;5080999;28;20753;-83
2023/01/08 04:15:26;;;;;;;11.68;6.60;;;;;;;;;;5061509;28;20367;-82
2023/01/08 04:17:52;;;;;;;6.68;3.50;;;;;;;;;;5062166;28;20024;-81
2023/01/08 04:20:18;;;;;;;7.82;4.35;;;;;;;;;;5062291;28;20541;-84
2023/01/08 04:22:43;;;;;;;9.50;5.55;;;;;;;;;;5062050;28;20054;-82
2023/01/08 04:25:08;;;;;;;9.03;5.33;;;;;;;;;;5079160;28;20039;-84
2023/01/08 04:27:34;;;;;;;11.10;5.88;;;;;;;;;;5079705;28;20348;-83
2023/01/08 04:29:59;;;;;;;8.23;4.95;;;;;;;;;;5060814;28;20051;-83
2023/01/08 04:32:24;;;;;;;10.40;6.13;;;;;;;;;;5079403;28;20028;-82
2023/01/08 04:34:49;;;;;;;9.80;6.07;;;;;;;;;;5079137;28;20028;-82
2023/01/08 04:37:14;;;;;;;10.37;6.30;;;;;;;;;;5079270;28;20024;-83
2023/01/08 04:39:40;;;;;;;12.18;6.75;;;;;;;;;;5079010;28;20253;-82
2023/01/08 04:42:05;;;;;;;12.15;6.45;;;;;;;;;;5079623;28;20043;-81
2023/01/08 04:44:30;;;;;;;10.37;6.00;;;;;;;;;;5061064;28;20031;-81
2023/01/08 04:46:55;;;;;;;10.13;6.30;;;;;;;;;;5079242;28;20253;-81
2023/01/08 04:49:20;;;;;;;10.57;6.30;;;;;;;;;;5079047;28;20344;-81
2023/01/08 04:51:46;;;;;;;10.27;6.30;;;;;;;;;;5060288;28;20016;-84
2023/01/08 04:54:11;;;;;;;13.40;6.85;;;;;;;;;;5060362;28;20334;-82
2023/01/08 04:56:36;;;;;;;10.50;6.40;;;;;;;;;;5078848;28;20021;-81
2023/01/08 04:59:02;;;;;;;11.18;6.13;;;;;;;;;;5078554;28;20089;-82
2023/01/08 05:01:28;;;;;;;9.05;4.85;;;;;;;;;;5078783;28;20109;-82
2023/01/08 05:03:55;;;;;;;10.25;6.75;;;;;;;;;;5078972;28;20020;-82
2023/01/08 05:06:20;;;;;;;10.95;6.65;;;;;;;;;;5078715;28;20032;-80
2023/01/08 05:08:45;;;;;;;9.73;5.90;;;;;;;;;;5078533;28;20029;-83
2023/01/08 05:11:11;;;;;;;12.43;7.05;;;;;;;;;;5060518;28;20024;-82
2023/01/08 05:13:36;;;;;;;12.53;7.30;;;;;;;;;;5078170;28;20096;-85
2023/01/08 05:16:01;;;;;;;12.65;7.50;;;;;;;;;;5078085;28;20285;-83
2023/01/08 05:18:28;;;;;;;9.60;5.82;;;;;;;;;;5077757;28;20016;-83
2023/01/08 05:20:53;;;;;;;11.60;7.07;;;;;;;;;;5078056;28;20059;-81
2023/01/08 05:23:18;;;;;;;13.32;7.38;;;;;;;;;;5059629;28;20440;-84
2023/01/08 05:25:43;;;;;;;10.98;6.22;;;;;;;;;;5059718;28;20023;-82
2023/01/08 05:28:09;;;;;;;11.60;6.60;;;;;;;;;;5077795;28;20020;-82
2023/01/08 05:30:35;;;;;;;13.75;7.13;;;;;;;;;;5078062;28;20055;-83
2023/01/08 05:33:00;;;;;;;13.63;6.80;;;;;;;;;;5078946;28;20028;-82
2023/01/08 05:35:26;;;;;;;11.20;6.70;;;;;;;;;;5059713;28;20413;-82
2023/01/08 05:37:51;;;;;;;12.10;7.73;;;;;;;;;;5078641;28;20253;-84
2023/01/08 05:40:16;;;;;;;9.17;5.93;;;;;;;;;;5078457;28;20634;-82
2023/01/08 05:42:41;;;;;;;7.03;4.43;;;;;;;;;;5077258;28;20742;-82
2023/01/08 05:45:07;;;;;;;13.55;7.10;;;;;;;;;;5060293;28;20031;-82
2023/01/08 05:47:33;;;;;;;16.10;7.78;;;;;;;;;;5059707;28;20515;-82
2023/01/08 05:49:59;;;;;;;13.98;7.53;;;;;;;;;;5078157;28;20021;-82
2023/01/08 05:52:24;;;;;;;13.73;7.80;;;;;;;;;;5078040;28;20025;-82
2023/01/08 05:54:49;;;;;;;13.93;8.10;;;;;;;;;;5059859;28;20041;-81
2023/01/08 05:57:15;;;;;;;15.57;8.63;;;;;;;;;;5078301;28;20126;-82
2023/01/08 05:59:40;;;;;;;13.38;8.15;;;;;;;;;;5077488;28;20029;-80
2023/01/08 06:02:07;;;;;;;16.07;8.33;;;;;;;;;;5077727;28;20036;-83
2023/01/08 06:04:32;;;;;;;13.77;8.00;;;;;;;;;;5060357;28;20277;-83
2023/01/08 06:06:57;;;;;;;14.38;7.90;;;;;;;;;;5078811;28;20035;-84
2023/01/08 06:09:23;;;;;;;9.40;6.00;;;;;;;;;;5060801;28;20043;-83
2023/01/08 06:11:48;;;;;;;13.30;7.47;;;;;;;;;;5060618;28;20538;-85
2023/01/08 06:14:14;;;;;;;13.73;7.47;;;;;;;;;;5060645;28;20402;-81
2023/01/08 06:16:40;;;;;;;13.50;7.68;;;;;;;;;;5060808;28;20024;-83
2023/01/08 06:19:05;;;;;;;13.00;7.80;;;;;;;;;;5078642;28;20115;-82
2023/01/08 06:21:30;;;;;;;14.83;7.63;;;;;;;;;;5078615;28;20304;-81
2023/01/08 06:23:55;;;;;;;13.80;8.23;;;;;;;;;;5079556;28;20251;-82
2023/01/08 06:26:20;;;;;;;12.07;6.23;;;;;;;;;;5079052;28;20257;-83
2023/01/08 06:28:46;;;;;;;13.55;7.57;;;;;;;;;;5078569;28;20253;-82
2023/01/08 06:31:11;;;;;;;15.47;6.97;;;;;;;;;;5078274;28;20020;-83
2023/01/08 06:33:36;;;;;;;15.43;8.97;;;;;;;;;;5078454;28;20287;-84
2023/01/08 06:36:03;;;;;;;13.48;7.57;;;;;;;;;;5059958;28;20340;-82
2023/01/08 06:38:33;;;;;;;12.27;6.15;;;;;;;;;;5060149;28;20025;-82
2023/01/08 06:41:03;;;;;;;17.15;8.45;;;;;;;;;;5059484;28;20020;-82
2023/01/08 06:43:28;;;;;;;10.05;6.35;;;;;;;;;;5077802;28;20031;-82
2023/01/08 06:45:54;;;;;;;13.43;7.20;;;;;;;;;;5078039;28;20382;-83
2023/01/08 06:48:19;;;;;;;17.63;7.88;;;;;;;;;;5059451;28;20036;-82
2023/01/08 06:50:44;;;;;;;15.45;8.27;;;;;;;;;;5077377;28;20025;-81
2023/01/08 06:53:10;;;;;;;13.65;8.30;;;;;;;;;;5062036;28;20024;-83
2023/01/08 06:55:37;;;;;;;13.57;8.02;;;;;;;;;;5081221;28;20067;-83
2023/01/08 06:58:02;;;;;;;16.08;8.18;;;;;;;;;;5064018;28;20046;-83
2023/01/08 07:00:27;;;;;;;15.50;8.30;;;;;;;;;;5081680;28;20020;-83
2023/01/08 07:02:53;;;;;;;14.27;7.68;;;;;;;;;;5082624;28;20096;-84
2023/01/08 07:05:18;;;;;;;11.05;6.28;;;;;;;;;;5081533;28;20036;-82
2023/01/08 07:07:44;;;;;;;14.68;8.00;;;;;;;;;;5080472;28;20024;-83
2023/01/08 07:10:09;;;;;;;13.38;6.72;;;;;;;;;;5062735;28;20047;-82
2023/01/08 07:12:35;;;;;;;16.27;8.57;;;;;;;;;;5080660;28;20032;-83
2023/01/08 07:15:01;;;;;;;10.15;6.15;;;;;;;;;;5080600;28;20078;-82
2023/01/08 07:17:26;;;;;;;11.18;6.38;;;;;;;;;;5081081;28;20024;-82
2023/01/08 07:19:51;;;;;;;11.90;7.20;;;;;;;;;;5080912;28;20079;-84
2023/01/08 07:22:17;;;;;;;10.63;5.95;;;;;;;;;;5081271;28;20028;-83
2023/01/08 07:24:42;;;;;;;13.55;7.28;;;;;;;;;;5080644;28;20021;-82
2023/01/08 07:27:07;;;;;;;14.75;7.97;;;;;;;;;;5062023;28;20051;-84
2023/01/08 07:29:32;;;;;;;14.27;7.53;;;;;;;;;;5062306;28;20021;-82
2023/01/08 07:31:58;;;;;;;14.50;7.90;;;;;;;;;;5080204;28;20052;-82
2023/01/08 07:34:23;;;;;;;17.63;8.20;;;;;;;;;;5080597;28;20299;-82
2023/01/08 07:36:48;;;;;;;13.13;6.10;;;;;;;;;;5080572;28;20058;-84
2023/01/08 07:39:13;;;;;;;13.52;7.05;;;;;;;;;;5080400;28;20257;-82
2023/01/08 07:41:39;;;;;;;16.77;7.30;;;;;;;;;;5080578;28;20112;-85
2023/01/08 07:44:04;;;;;;;12.82;6.90;;;;;;;;;;5062096;28;20504;-83
2023/01/08 07:46:29;;;;;;;17.10;7.57;;;;;;;;;;5079597;28;20025;-82
2023/01/08 07:48:55;;;;;;;11.57;6.80;;;;;;;;;;5079543;28;20121;-83
2023/01/08 07:51:21;;;;;;;12.02;6.03;;;;;;;;;;5079397;28;20031;-83
2023/01/08 07:53:46;;;;;;;12.13;6.85;;;;;;;;;;5061169;28;20021;-82
2023/01/08 07:56:11;;;;;;;10.60;6.53;;;;;;;;;;5079170;28;20028;-82
2023/01/08 07:58:37;;;;;;;11.93;6.65;;;;;;;;;;5079279;28;20017;-82
2023/01/08 08:01:03;;;;;;;10.48;5.97;;;;;;;;;;5079945;28;20024;-84
2023/01/08 08:03:28;;;;;;;12.43;7.07;;;;;;;;;;5078806;28;20034;-84
2023/01/08 08:05:53;;;;;;;9.75;6.07;;;;;;;;;;5079036;28;20025;-82
2023/01/08 08:08:19;;;;;;;9.75;5.68;;;;;;;;;;5080009;28;20031;-84
2023/01/08 08:10:45;;;;;;;11.25;6.85;;;;;;;;;;5079982;28;20031;-81
2023/01/08 08:13:11;;;;;;;11.00;6.63;;;;;;;;;;5079417;28;20023;-81
2023/01/08 08:15:37;;;;;;;12.23;6.68;;;;;;;;;;5079809;28;20059;-83
2023/01/08 08:18:03;;;;;;;12.38;6.55;;;;;;;;;;5078689;28;20104;-82
2023/01/08 08:20:29;;;;;;;12.13;6.00;;;;;;;;;;5060781;28;20029;-83
2023/01/08 08:23:07;;;;;;;10.98;6.38;;;;;;;;;;5076961;28;20028;-81
2023/01/08 08:25:32;;;;;;;10.65;6.47;;;;;;;;;;5060618;28;20093;-82
2023/01/08 08:27:59;;;;;;;10.10;5.13;;;;;;;;;;5079423;28;20052;-82
2023/01/08 08:30:25;;;;;;;11.48;6.43;;;;;;;;;;5060354;28;20027;-81
2023/01/08 08:32:51;;;;;;;9.32;5.18;;;;;;;;;;5061259;28;20024;-82
2023/01/08 08:35:16;;;;;;;9.38;5.50;;;;;;;;;;5078523;28;20104;-83
2023/01/08 08:37:41;;;;;;;5.18;3.65;;;;;;;;;;5060275;28;20031;-84
2023/01/08 08:40:07;;;;;;;11.73;6.40;;;;;;;;;;5078489;28;20029;-81
2023/01/08 08:42:32;;;;;;;11.50;6.47;;;;;;;;;;5078782;28;20265;-83
2023/01/08 08:44:57;;;;;;;11.77;6.07;;;;;;;;;;5078384;28;20036;-82
2023/01/08 08:47:23;;;;;;;9.83;5.13;;;;;;;;;;5077644;28;20612;-84
2023/01/08 08:49:48;;;;;;;10.88;5.88;;;;;;;;;;5059806;28;20261;-84
2023/01/08 08:52:13;;;;;;;12.80;5.47;;;;;;;;;;5078559;28;20032;-84
2023/01/08 08:54:40;;;;;;;8.93;5.03;;;;;;;;;;5078026;28;20088;-83
2023/01/08 08:57:09;;;;;;;9.75;5.38;;;;;;;;;;5079331;28;20261;-81
2023/01/08 08:59:35;;;;;;;10.82;5.82;;;;;;;;;;5060823;28;20020;-82
2023/01/08 09:02:00;;;;;;;7.28;4.05;;;;;;;;;;5060243;28;20047;-85
2023/01/08 09:04:28;;;;;;;7.15;4.30;;;;;;;;;;5059319;28;20069;-83
2023/01/08 09:06:54;;;;;;;8.35;4.65;;;;;;;;;;5060727;28;20082;-83
2023/01/08 09:09:19;;;;;;;7.77;4.67;;;;;;;;;;5077681;28;20032;-81
2023/01/08 09:11:44;;;;;;;9.60;5.47;;;;;;;;;;5077507;28;20264;-84
2023/01/08 09:14:09;;;;;;;8.75;4.93;;;;;;;;;;5059000;28;20277;-85
2023/01/08 09:16:35;;;;;;;9.17;5.10;;;;;;;;;;5077131;28;20055;-84
2023/01/08 09:19:01;;;;;;;10.25;5.65;;;;;;;;;;5077138;28;20264;-82
2023/01/08 09:21:26;;;;;;;9.07;5.57;;;;;;;;;;5076799;28;20029;-82
2023/01/08 09:23:51;;;;;;;8.55;5.07;;;;;;;;;;5076997;28;20031;-85
2023/01/08 09:26:19;;;;;;;11.60;5.93;;;;;;;;;;5076572;28;20059;-83
2023/01/08 09:28:45;;;;;;;9.10;5.20;;;;;;;;;;5058505;28;20253;-85
2023/01/08 09:31:10;;;;;;;5.38;3.63;;;;;;;;;;5077774;28;20051;-85
2023/01/08 09:33:35;;;;;;;7.32;4.53;;;;;;;;;;5077025;28;20035;-84
2023/01/08 09:36:00;;;;;;;8.50;4.88;;;;;;;;;;5077825;28;20055;-82
2023/01/08 09:38:28;;;;;;;8.57;4.28;;;;;;;;;;5076854;28;20024;-85
2023/01/08 09:40:58;;;;;;;10.15;5.97;;;;;;;;;;5059021;28;20062;-81
2023/01/08 09:43:26;;;;;;;9.10;4.93;;;;;;;;;;5076348;28;20062;-82
2023/01/08 09:45:55;;;;;;;9.90;3.92;;;;;;;;;;5076996;28;20117;-84
2023/01/08 09:48:26;;;;;;;6.35;3.88;;;;;;;;;;5077499;28;20036;-84
2023/01/08 09:50:52;;;;;;;10.15;4.82;;;;;;;;;;5076762;28;20027;-84
2023/01/08 09:53:17;;;;;;;9.95;4.50;;;;;;;;;;5077118;28;20040;-84
2023/01/08 09:55:45;;;;;;;10.43;4.90;;;;;;;;;;5058775;28;20074;-83
2023/01/08 09:58:36;;;;;;;10.02;5.15;;;;;;;;;;5077292;28;20032;-83
2023/01/08 10:01:03;;;;;;;9.95;6.03;;;;;;;;;;5076899;28;20029;-82
2023/01/08 10:03:36;;;;;;;15.77;5.70;;;;;;;;;;5059520;28;20021;-81
2023/01/08 10:06:10;;;;;;;11.35;5.85;;;;;;;;;;5077780;28;20029;-82
2023/01/08 10:08:36;;;;;;;8.00;4.68;;;;;;;;;;5078450;28;20025;-83
2023/01/08 10:11:02;;;;;;;8.65;5.22;;;;;;;;;;5076585;28;20024;-82
2023/01/08 10:13:28;;;;;;;9.93;5.88;;;;;;;;;;5076907;28;20047;-83
2023/01/08 10:15:53;;;;;;;14.23;7.55;;;;;;;;;;5077149;28;20029;-84
2023/01/08 10:18:24;;;;;;;11.20;6.27;;;;;;;;;;5076854;28;20462;-84
2023/01/08 10:20:49;;;;;;;10.40;5.72;;;;;;;;;;5058774;28;20254;-82
2023/01/08 10:23:17;;;;;;;11.37;5.70;;;;;;;;;;5059001;28;20081;-81
2023/01/08 10:25:52;;;;;;;10.55;6.45;;;;;;;;;;5077183;28;20245;-84
2023/01/08 10:28:24;;;;;;;9.43;5.65;;;;;;;;;;5078929;28;20091;-82
2023/01/08 10:30:51;;;;;;;10.23;5.60;;;;;;;;;;5080799;28;20500;-82
2023/01/08 10:33:36;;;;;;;8.98;5.38;;;;;;;;;;5081010;28;20453;-82
2023/01/08 10:36:05;;;;;;;9.90;5.43;;;;;;;;;;5080525;28;20028;-82
2023/01/08 10:38:32;;;;;;;10.07;5.80;;;;;;;;;;5081168;28;20028;-82
2023/01/08 10:40:58;;;;;;;12.68;5.43;;;;;;;;;;5080488;28;20020;-82
2023/01/08 10:43:32;;;;;;;9.20;5.00;;;;;;;;;;5082020;28;20024;-82
2023/01/08 10:46:03;;;;;;;8.48;5.07;;;;;;;;;;5081211;28;20086;-82
2023/01/08 10:48:52;;;;;;;9.88;5.55;;;;;;;;;;5080682;28;20037;-83
2023/01/08 10:51:20;;;;;;;8.27;4.93;;;;;;;;;;5062356;28;20028;-84
2023/01/08 10:53:48;;;;;;;7.55;4.75;;;;;;;;;;5080332;28;20031;-82
2023/01/08 10:56:28;;;;;;;6.07;4.00;;;;;;;;;;5080575;28;20043;-83
2023/01/08 10:58:54;;;;;;;7.28;4.18;;;;;;;;;;5063132;28;20055;-83
2023/01/08 11:01:23;;;;;;;9.63;4.78;;;;;;;;;;5062688;28;20031;-81
2023/01/08 11:03:55;;;;;;;10.90;5.10;;;;;;;;;;5081354;28;20017;-82
2023/01/08 11:06:30;;;;;;;6.90;4.03;;;;;;;;;;5080575;28;20150;-81
2023/01/08 11:09:03;;;;;;;8.93;4.63;;;;;;;;;;5062812;28;20021;-82
2023/01/08 11:11:37;;;;;;;7.65;4.88;;;;;;;;;;5063405;28;20128;-82
2023/01/08 11:14:05;;;;;;;10.18;5.05;;;;;;;;;;5062451;28;20029;-82
2023/01/08 11:16:38;;;;;;;7.35;4.05;;;;;;;;;;5062915;28;20124;-84
2023/01/08 11:19:13;;;;;;;9.13;4.85;;;;;;;;;;5080213;28;20037;-82
2023/01/08 11:21:41;;;;;;;7.40;4.50;;;;;;;;;;5079847;28;20044;-82
2023/01/08 11:24:19;;;;;;;8.70;5.05;;;;;;;;;;5061595;28;20025;-82
2023/01/08 11:26:51;;;;;;;7.55;4.43;;;;;;;;;;5079282;28;20032;-82
2023/01/08 11:29:40;;;;;;;6.70;3.92;;;;;;;;;;5079050;28;20098;-84
2023/01/08 11:32:14;;;;;;;8.38;4.38;;;;;;;;;;5067578;28;20512;-83
2023/01/08 11:35:03;;;;;;;7.65;4.43;;;;;;;;;;5060805;28;20035;-82
2023/01/08 11:37:37;;;;;;;7.57;3.40;;;;;;;;;;5061390;28;20025;-85
2023/01/08 11:40:12;;;;;;;7.57;4.68;;;;;;;;;;5077755;28;20024;-83
2023/01/08 11:42:59;;;;;;;7.97;4.50;;;;;;;;;;5061315;28;20074;-81
2023/01/08 11:45:43;;;;;;;9.05;5.22;;;;;;;;;;5079192;28;20504;-82
2023/01/08 11:48:44;;;;;;;9.40;5.10;;;;;;;;;;5079072;28;20036;-81
2023/01/08 11:51:33;;;;;;;9.32;5.10;;;;;;;;;;5078885;28;20050;-82
2023/01/08 11:54:30;;;;;;;6.80;3.92;;;;;;;;;;5079294;28;20032;-83
2023/01/08 11:57:13;;;;;;;8.25;3.92;;;;;;;;;;5079213;28;20508;-82
2023/01/08 12:00:01;;;;;;;10.10;5.97;;;;;;;;;;5079330;28;20067;-82
2023/01/08 12:02:57;;;;;;;8.80;5.53;;;;;;;;;;5062684;28;20032;-82
2023/01/08 12:05:46;;;;;;;10.75;5.45;;;;;;;;;;5061470;28;20028;-83
2023/01/08 12:08:38;;;;;;;9.25;5.22;;;;;;;;;;5079832;28;20029;-83
2023/01/08 12:11:23;;;;;;;9.75;5.82;;;;;;;;;;5079125;28;20568;-81
2023/01/08 12:14:12;;;;;;;7.68;4.72;;;;;;;;;;5061382;28;20508;-84
2023/01/08 12:17:04;;;;;;;8.90;5.55;;;;;;;;;;5070023;28;20501;-80
2023/01/08 12:19:59;;;;;;;10.00;5.70;;;;;;;;;;5061481;28;20028;-82
2023/01/08 12:22:33;;;;;;;12.70;5.55;;;;;;;;;;5060785;28;20028;-83
2023/01/08 12:25:35;;;;;;;10.10;6.43;;;;;;;;;;5078133;28;20024;-82
2023/01/08 12:28:21;;;;;;;11.52;6.68;;;;;;;;;;5060846;28;20039;-80
2023/01/08 12:31:27;;;;;;;12.02;6.82;;;;;;;;;;5079366;28;20549;-82
2023/01/08 12:34:43;;;;;;;8.07;4.85;;;;;;;;;;5078417;28;20078;-81
2023/01/08 12:37:26;;;;;;;8.40;5.00;;;;;;;;;;5053337;28;20058;-83
2023/01/08 12:40:02;;;;;;;7.87;4.80;;;;;;;;;;5079654;28;20028;-83
2023/01/08 12:42:30;;;;;;;11.13;6.10;;;;;;;;;;5080971;28;20032;-83
2023/01/08 12:44:59;;;;;;;10.90;4.82;;;;;;;;;;5079809;28;20081;-84
2023/01/08 12:47:28;;;;;;;12.77;6.45;;;;;;;;;;5061384;28;20082;-83
2023/01/08 12:50:03;;;;;;;10.77;4.70;;;;;;;;;;5078890;28;20027;-83
2023/01/08 12:52:46;;;;;;;12.30;6.30;;;;;;;;;;5061180;28;20035;-82
2023/01/08 12:55:41;;;;;;;12.27;6.63;;;;;;;;;;5060655;28;20059;-81
2023/01/08 12:58:06;;;;;;;;;;;;;;;;;;5062015;28;20024;-80
2023/01/08 13:00:54;;;;;;;10.77;6.40;;;;;;;;;;5078847;28;19947;-81
2023/01/08 13:03:24;;;;;;;13.30;7.22;;;;;;;;;;5060790;28;20036;-81
2023/01/08 13:05:50;;;;;;;12.13;6.90;;;;;;;;;;5079133;28;20029;-82
2023/01/08 13:08:33;;;;;;;12.00;6.78;;;;;;;;;;5079579;28;20169;-82
2023/01/08 13:10:58;;;;;;;7.32;4.40;;;;;;;;;;5079591;28;20035;-82
2023/01/08 13:13:30;;;;;;;9.60;5.50;;;;;;;;;;5078132;28;20020;-83
2023/01/08 13:16:20;;;;;;;13.48;6.82;;;;;;;;;;5078910;28;20036;-83
2023/01/08 13:18:57;;;;;;;11.38;6.20;;;;;;;;;;5061520;28;20501;-82
2023/01/08 13:21:34;;;;;;;12.45;6.72;;;;;;;;;;5079084;28;20020;-83
2023/01/08 13:24:02;;;;;;;10.73;5.85;;;;;;;;;;5062350;28;20017;-83
2023/01/08 13:26:30;;;;;;;11.30;5.18;;;;;;;;;;5061021;28;20111;-83
2023/01/08 13:29:22;;;;;;;13.68;7.25;;;;;;;;;;5060925;28;20032;-82
2023/01/08 13:31:47;;;;;;;12.88;6.63;;;;;;;;;;5079976;28;20487;-82
2023/01/08 13:34:34;;;;;;;10.25;5.47;;;;;;;;;;5061261;28;20021;-82
2023/01/08 13:37:00;;;;;;;28.75;13.82;;;;;;;;;;5061204;28;20026;-82
2023/01/08 13:39:38;;;;;;;27.08;15.07;;;;;;;;;;5078606;28;20103;-82
2023/01/08 13:42:23;;;;;;;16.30;8.45;;;;;;;;;;5078960;28;20028;-81
2023/01/08 13:44:51;;;;;;;43.55;20.50;;;;;;;;;;5079212;28;20017;-81
2023/01/08 13:47:34;;;;;;;53.28;23.35;;;;;;;;;;5061053;28;20021;-82
2023/01/08 13:50:04;;;;;;;46.25;18.83;;;;;;;;;;5060039;28;20020;-82
2023/01/08 13:52:40;;;;;;;37.22;17.83;;;;;;;;;;5061566;28;20416;-81
2023/01/08 13:55:14;;;;;;;14.65;7.75;;;;;;;;;;5079398;28;20149;-83
2023/01/08 13:57:44;;;;;;;24.33;12.15;;;;;;;;;;5079032;28;20020;-82
2023/01/08 14:00:29;;;;;;;25.13;13.25;;;;;;;;;;5078799;28;20066;-82
2023/01/08 14:02:54;;;;;;;13.13;8.00;;;;;;;;;;5078445;28;20048;-83
2023/01/08 14:05:29;;;;;;;15.60;8.30;;;;;;;;;;5060245;28;20070;-82
2023/01/08 14:07:55;;;;;;;12.02;6.97;;;;;;;;;;5079120;28;20048;-82
2023/01/08 14:10:21;;;;;;;13.30;6.88;;;;;;;;;;5079085;28;20037;-80
2023/01/08 14:12:47;;;;;;;12.80;6.88;;;;;;;;;;5079438;28;20450;-82
2023/01/08 14:15:24;;;;;;;11.30;6.40;;;;;;;;;;5061184;28;20060;-82
2023/01/08 14:17:50;;;;;;;12.55;6.72;;;;;;;;;;5078286;28;20055;-82
2023/01/08 14:20:42;;;;;;;14.10;6.28;;;;;;;;;;5060433;28;20039;-81
2023/01/08 14:23:17;;;;;;;12.55;7.25;;;;;;;;;;5077665;28;20040;-82
2023/01/08 14:25:46;;;;;;;12.00;6.95;;;;;;;;;;5060371;28;20128;-82
2023/01/08 14:28:16;;;;;;;13.68;7.03;;;;;;;;;;5077822;28;20035;-82
2023/01/08 14:30:54;;;;;;;11.90;6.57;;;;;;;;;;5078444;28;20021;-82
2023/01/08 14:33:23;;;;;;;11.73;6.60;;;;;;;;;;5078604;28;20059;-82
2023/01/08 14:35:50;;;;;;;11.57;6.38;;;;;;;;;;5078820;28;20020;-81
2023/01/08 14:38:15;;;;;;;12.23;6.53;;;;;;;;;;5078563;28;20028;-83
2023/01/08 14:40:44;;;;;;;11.65;7.22;;;;;;;;;;5078517;28;20397;-83
2023/01/08 14:43:12;;;;;;;13.02;7.53;;;;;;;;;;5078719;28;20032;-81
2023/01/08 14:45:43;;;;;;;13.95;7.88;;;;;;;;;;5078309;28;20021;-82
2023/01/08 14:48:19;;;;;;;10.00;6.13;;;;;;;;;;5077696;28;20059;-81
2023/01/08 14:50:59;;;;;;;13.68;7.95;;;;;;;;;;5059546;28;20440;-81
2023/01/08 14:53:28;;;;;;;15.02;8.00;;;;;;;;;;5078504;28;20048;-83